createdAt,value
2022-11-16T00:01:34.255Z,100757.38
2022-11-16T00:04:02.806Z,100757.31
2022-11-16T00:06:29.795Z,100757.22
2022-11-16T00:09:18.237Z,100761.53
2022-11-16T00:11:45.679Z,100760.69
2022-11-16T00:14:12.499Z,100761.53
2022-11-16T00:16:39.587Z,100758.03
2022-11-16T00:19:07.103Z,100766.78
2022-11-16T00:21:34.123Z,100757.31
2022-11-16T00:24:02.430Z,100762.50
2022-11-16T00:26:29.278Z,100752.97
2022-11-16T00:28:56.642Z,100761.69
2022-11-16T00:31:24.905Z,100746.88
2022-11-16T00:33:52.147Z,100757.22
2022-11-16T00:36:18.902Z,100760.75
2022-11-16T00:38:46.468Z,100752.97
2022-11-16T00:41:13.208Z,100765.97
2022-11-16T00:43:39.877Z,100745.19
2022-11-16T00:46:07.383Z,100749.56
2022-11-16T00:48:34.213Z,100740.78
2022-11-16T00:51:01.186Z,100754.56
2022-11-16T00:53:28.692Z,100707.56
2022-11-16T00:55:55.400Z,100735.44
2022-11-16T00:58:22.154Z,100738.94
2022-11-16T01:00:50.000Z,100734.47
2022-11-16T01:03:16.717Z,100744.88
2022-11-16T01:05:43.728Z,100737.91
2022-11-16T01:08:10.618Z,100722.25
2022-11-16T01:10:39.907Z,100729.16
2022-11-16T01:13:07.386Z,100731.69
2022-11-16T01:15:34.660Z,100729.88
2022-11-16T01:18:01.294Z,100734.09
2022-11-16T01:20:29.711Z,100733.88
2022-11-16T01:22:56.668Z,100737.28
2022-11-16T01:25:23.339Z,100737.94
2022-11-16T01:27:50.171Z,100746.50
2022-11-16T01:30:17.252Z,100725.47
2022-11-16T01:32:43.924Z,100740.19
2022-11-16T01:35:16.047Z,100755.66
2022-11-16T01:37:42.919Z,100751.25
2022-11-16T01:40:11.089Z,100742.47
2022-11-16T01:42:37.917Z,100743.16
2022-11-16T01:45:24.729Z,100744.88
2022-11-16T01:47:53.163Z,100750.16
2022-11-16T01:50:19.985Z,100757.00
2022-11-16T01:52:54.471Z,100748.22
2022-11-16T01:55:23.263Z,100738.59
2022-11-16T01:57:51.132Z,100763.63
2022-11-16T02:00:18.730Z,100727.81
2022-11-16T02:02:45.800Z,100753.03
2022-11-16T02:05:15.861Z,100735.53
2022-11-16T02:08:23.146Z,100760.56
2022-11-16T02:11:13.960Z,100756.91
2022-11-16T02:13:46.470Z,100744.63
2022-11-16T02:16:41.007Z,100747.94
2022-11-16T02:19:11.784Z,100746.81
2022-11-16T02:22:00.948Z,100741.47
2022-11-16T02:24:28.362Z,100747.47
2022-11-16T02:27:17.924Z,100750.81
2022-11-16T02:29:53.648Z,100739.34
2022-11-16T02:32:29.642Z,100751.41
2022-11-16T02:35:05.787Z,100741.75
2022-11-16T02:37:37.176Z,100750.31
2022-11-16T02:40:08.875Z,100751.81
2022-11-16T02:42:41.477Z,100743.22
2022-11-16T02:45:12.795Z,100728.25
2022-11-16T02:47:42.122Z,100744.78
2022-11-16T02:50:16.345Z,100733.47
2022-11-16T02:52:42.987Z,100746.41
2022-11-16T02:55:12.638Z,100714.97
2022-11-16T02:57:54.119Z,100746.16
2022-11-16T03:00:27.121Z,100748.78
2022-11-16T03:03:11.583Z,100751.34
2022-11-16T03:06:11.514Z,100752.13
2022-11-16T03:08:42.830Z,100724.25
2022-11-16T03:11:29.819Z,100750.16
2022-11-16T03:14:04.131Z,100712.75
2022-11-16T03:16:35.118Z,100744.22
2022-11-16T03:19:08.264Z,100762.47
2022-11-16T03:21:43.801Z,100753.13
2022-11-16T03:24:10.681Z,100754.03
2022-11-16T03:27:05.476Z,100756.69
2022-11-16T03:29:39.989Z,100762.00
2022-11-16T03:32:41.699Z,100761.31
2022-11-16T03:35:18.590Z,100766.41
2022-11-16T03:37:48.022Z,100765.63
2022-11-16T03:40:17.160Z,100735.19
2022-11-16T03:42:45.795Z,100756.94
2022-11-16T03:45:14.107Z,100733.34
2022-11-16T03:47:42.053Z,100766.38
2022-11-16T03:50:09.940Z,100762.75
2022-11-16T03:52:36.861Z,100767.91
2022-11-16T03:55:04.650Z,100769.63
2022-11-16T03:57:31.286Z,100771.25
2022-11-16T03:59:57.867Z,100775.56
2022-11-16T04:02:24.451Z,100773.00
2022-11-16T04:05:09.917Z,100775.63
2022-11-16T04:07:56.139Z,100767.84
2022-11-16T04:10:41.085Z,100749.50
2022-11-16T04:13:30.511Z,100760.22
2022-11-16T04:16:15.677Z,100763.03
2022-11-16T04:19:00.855Z,100758.75
2022-11-16T04:22:00.680Z,100754.56
2022-11-16T04:24:30.487Z,100746.81
2022-11-16T04:27:19.351Z,100756.41
2022-11-16T04:29:48.393Z,100757.31
2022-11-16T04:32:44.980Z,100745.06
2022-11-16T04:35:46.899Z,100753.81
2022-11-16T04:38:15.119Z,100764.38
2022-11-16T04:40:41.717Z,100771.28
2022-11-16T04:43:08.643Z,100753.91
2022-11-16T04:45:54.986Z,100732.03
2022-11-16T04:48:21.983Z,100763.50
2022-11-16T04:50:48.702Z,100764.47
2022-11-16T04:53:16.005Z,100765.53
2022-11-16T04:55:42.619Z,100753.50
2022-11-16T04:58:10.887Z,100768.41
2022-11-16T05:00:37.987Z,100757.31
2022-11-16T05:03:05.370Z,100756.66
2022-11-16T05:05:31.980Z,100736.69
2022-11-16T05:07:59.413Z,100751.66
2022-11-16T05:10:26.277Z,100742.16
2022-11-16T05:12:52.881Z,100758.03
2022-11-16T05:15:20.038Z,100762.56
2022-11-16T05:17:47.397Z,100772.28
2022-11-16T05:20:33.039Z,100777.56
2022-11-16T05:22:59.701Z,100783.75
2022-11-16T05:25:26.850Z,100776.03
2022-11-16T05:27:55.056Z,100779.69
2022-11-16T05:30:21.765Z,100784.13
2022-11-16T05:32:48.384Z,100782.56
2022-11-16T05:35:15.852Z,100778.38
2022-11-16T05:37:42.456Z,100773.38
2022-11-16T05:40:09.597Z,100771.66
2022-11-16T05:42:40.004Z,100782.88
2022-11-16T05:45:07.015Z,100793.28
2022-11-16T05:47:33.609Z,100779.53
2022-11-16T05:50:00.288Z,100770.06
2022-11-16T05:52:26.847Z,100747.47
2022-11-16T05:54:53.433Z,100771.13
2022-11-16T05:57:20.828Z,100770.34
2022-11-16T05:59:47.430Z,100774.81
2022-11-16T06:02:14.595Z,100779.28
2022-11-16T06:04:42.095Z,100775.03
2022-11-16T06:07:08.731Z,100776.03
2022-11-16T06:09:35.445Z,100787.41
2022-11-16T06:12:02.070Z,100760.56
2022-11-16T06:14:28.644Z,100782.47
2022-11-16T06:16:55.227Z,100783.41
2022-11-16T06:19:22.732Z,100778.28
2022-11-16T06:21:49.364Z,100787.81
2022-11-16T06:24:16.029Z,100774.84
2022-11-16T06:26:42.731Z,100789.69
2022-11-16T06:29:10.424Z,100784.44
2022-11-16T06:31:37.035Z,100796.50
2022-11-16T06:34:03.695Z,100789.59
2022-11-16T06:36:30.336Z,100797.56
2022-11-16T06:39:00.308Z,100786.44
2022-11-16T06:41:27.901Z,100763.00
2022-11-16T06:43:54.486Z,100787.38
2022-11-16T06:46:21.293Z,100787.34
2022-11-16T06:48:47.951Z,100783.16
2022-11-16T06:51:14.567Z,100786.69
2022-11-16T06:53:41.190Z,100780.63
2022-11-16T06:56:08.144Z,100784.19
2022-11-16T06:58:35.101Z,100790.22
2022-11-16T07:01:09.936Z,100788.44
2022-11-16T07:03:36.590Z,100788.44
2022-11-16T07:06:12.475Z,100784.19
2022-11-16T07:08:39.253Z,100781.69
2022-11-16T07:11:07.555Z,100781.75
2022-11-16T07:13:38.080Z,100786.97
2022-11-16T07:16:06.972Z,100785.28
2022-11-16T07:18:35.945Z,100787.03
2022-11-16T07:21:11.470Z,100787.75
2022-11-16T07:23:38.350Z,100775.38
2022-11-16T07:26:07.576Z,100787.28
2022-11-16T07:28:35.614Z,100770.69
2022-11-16T07:31:08.478Z,100774.13
2022-11-16T07:33:35.930Z,100778.63
2022-11-16T07:36:07.781Z,100774.56
2022-11-16T07:38:35.006Z,100777.41
2022-11-16T07:41:03.348Z,100773.22
2022-11-16T07:43:37.257Z,100769.84
2022-11-16T07:46:44.714Z,100788.09
2022-11-16T07:48:54.768Z,100762.13
2022-11-16T07:51:21.323Z,100769.13
2022-11-16T07:53:47.914Z,100757.72
2022-11-16T07:56:14.541Z,100770.59
2022-11-16T07:58:41.123Z,100767.00
2022-11-16T08:01:13.415Z,100756.47
2022-11-16T08:03:42.232Z,100759.88
2022-11-16T08:06:13.188Z,100757.31
2022-11-16T08:08:40.204Z,100759.09
2022-11-16T08:11:10.716Z,100752.22
2022-11-16T08:13:39.804Z,100754.78
2022-11-16T08:16:11.015Z,100763.47
2022-11-16T08:18:39.678Z,100762.69
2022-11-16T08:21:08.094Z,100731.50
2022-11-16T08:23:35.149Z,100764.81
2022-11-16T08:26:04.354Z,100763.25
2022-11-16T08:28:34.775Z,100765.19
2022-11-16T08:31:11.586Z,100765.28
2022-11-16T08:33:38.466Z,100764.53
2022-11-16T08:36:12.569Z,100757.69
2022-11-16T08:38:41.520Z,100761.22
2022-11-16T08:41:08.160Z,100748.19
2022-11-16T08:43:35.940Z,100761.25
2022-11-16T08:46:03.379Z,100763.88
2022-11-16T08:48:30.674Z,100760.34
2022-11-16T08:51:17.341Z,100752.47
2022-11-16T08:53:48.155Z,100760.28
2022-11-16T08:56:17.361Z,100760.25
2022-11-16T08:58:44.411Z,100762.00
2022-11-16T09:01:15.649Z,100762.06
2022-11-16T09:03:42.543Z,100770.94
2022-11-16T09:06:10.413Z,100751.81
2022-11-16T09:08:38.637Z,100768.25
2022-11-16T09:11:10.055Z,100761.28
2022-11-16T09:13:37.044Z,100743.13
2022-11-16T09:16:04.689Z,100754.44
2022-11-16T09:18:32.006Z,100731.00
2022-11-16T09:20:58.973Z,100764.88
2022-11-16T09:23:25.936Z,100756.19
2022-11-16T09:25:56.190Z,100766.63
2022-11-16T09:28:23.798Z,100760.56
2022-11-16T09:30:51.365Z,100773.53
2022-11-16T09:33:18.499Z,100777.00
2022-11-16T09:35:45.292Z,100774.41
2022-11-16T09:38:16.012Z,100780.41
2022-11-16T09:40:48.435Z,100776.94
2022-11-16T09:43:45.633Z,100774.34
2022-11-16T09:46:29.546Z,100768.16
2022-11-16T09:49:02.425Z,100779.50
2022-11-16T09:51:33.885Z,100776.03
2022-11-16T09:54:23.099Z,100779.56
2022-11-16T09:56:54.662Z,100776.16
2022-11-16T09:59:27.687Z,100767.47
2022-11-16T10:01:59.570Z,100772.69
2022-11-16T10:04:43.886Z,100790.03
2022-11-16T10:07:20.260Z,100747.47
2022-11-16T10:09:47.791Z,100734.47
2022-11-16T10:12:40.206Z,100770.97
2022-11-16T10:15:18.808Z,100763.16
2022-11-16T10:18:20.707Z,100763.16
2022-11-16T10:21:07.358Z,100761.41
2022-11-16T10:23:50.007Z,100761.41
2022-11-16T10:26:19.207Z,100760.47
2022-11-16T10:29:10.341Z,100761.25
2022-11-16T10:31:51.597Z,100762.03
2022-11-16T10:34:37.776Z,100764.50
2022-11-16T10:37:08.519Z,100763.59
2022-11-16T10:39:40.407Z,100758.47
2022-11-16T10:42:13.454Z,100758.50
2022-11-16T10:44:45.641Z,100764.69
2022-11-16T10:47:19.008Z,100762.16
2022-11-16T10:49:59.574Z,100763.94
2022-11-16T10:52:26.558Z,100764.84
2022-11-16T10:54:53.475Z,100759.63
2022-11-16T10:57:20.616Z,100755.31
2022-11-16T10:59:50.154Z,100746.63
2022-11-16T11:02:37.406Z,100738.84
2022-11-16T11:05:07.039Z,100738.75
2022-11-16T11:07:40.049Z,100736.00
2022-11-16T11:10:30.431Z,100742.72
2022-11-16T11:13:04.586Z,100722.59
2022-11-16T11:15:31.333Z,100737.41
2022-11-16T11:18:22.238Z,100734.00
2022-11-16T11:20:51.157Z,100737.56
2022-11-16T11:23:25.527Z,100708.97
2022-11-16T11:25:55.268Z,100732.75
2022-11-16T11:28:32.041Z,100723.06
2022-11-16T11:31:11.714Z,100721.41
2022-11-16T11:33:48.405Z,100724.03
2022-11-16T11:36:35.336Z,100729.03
2022-11-16T11:39:07.687Z,100726.59
2022-11-16T11:41:39.925Z,100708.31
2022-11-16T11:44:15.779Z,100731.63
2022-11-16T11:50:08.406Z,100714.50
2022-11-16T11:52:44.631Z,100702.81
2022-11-16T11:55:15.646Z,100711.06
2022-11-16T11:57:46.282Z,100699.66
2022-11-16T12:00:14.977Z,100671.59
2022-11-16T12:03:19.925Z,100706.13
2022-11-16T12:05:58.010Z,100712.16
2022-11-16T12:08:35.412Z,100716.91
2022-11-16T12:11:08.104Z,100712.25
2022-11-16T12:14:14.787Z,100708.50
2022-11-16T12:16:53.250Z,100715.50
2022-11-16T12:20:00.818Z,100708.84
2022-11-16T12:22:45.293Z,100713.06
2022-11-16T12:25:25.709Z,100719.63
2022-11-16T12:28:25.798Z,100719.44
2022-11-16T12:31:17.185Z,100723.59
2022-11-16T12:33:55.893Z,100702.84
2022-11-16T12:36:39.882Z,100726.56
2022-11-16T12:39:12.580Z,100729.28
2022-11-16T12:41:48.725Z,100722.28
2022-11-16T12:44:27.409Z,100730.88
2022-11-16T12:47:31.453Z,100724.66
2022-11-16T12:50:08.106Z,100736.63
2022-11-16T12:53:02.493Z,100736.50
2022-11-16T12:55:49.589Z,100745.78
2022-11-16T12:58:19.052Z,100742.09
2022-11-16T13:00:50.727Z,100738.53
2022-11-16T13:03:29.526Z,100730.63
2022-11-16T13:06:03.589Z,100734.94
2022-11-16T13:08:52.791Z,100728.84
2022-11-16T13:11:42.492Z,100739.22
2022-11-16T13:14:21.018Z,100734.81
2022-11-16T13:16:49.278Z,100734.75
2022-11-16T13:19:18.101Z,100739.09
2022-11-16T13:22:10.723Z,100735.59
2022-11-16T13:24:49.288Z,100737.28
2022-11-16T13:27:49.812Z,100738.13
2022-11-16T13:30:22.545Z,100745.06
2022-11-16T13:33:11.252Z,100739.81
2022-11-16T13:35:38.952Z,100732.84
2022-11-16T13:38:13.096Z,100742.38
2022-11-16T13:40:40.943Z,100742.34
2022-11-16T13:43:16.551Z,100739.75
2022-11-16T13:45:43.083Z,100743.19
2022-11-16T13:48:20.578Z,100746.59
2022-11-16T13:50:51.052Z,100726.56
2022-11-16T13:54:44.434Z,100746.50
2022-11-16T13:57:21.217Z,100742.94
2022-11-16T14:00:03.685Z,100754.09
2022-11-16T14:02:35.065Z,100736.03
2022-11-16T14:05:13.726Z,100741.31
2022-11-16T14:07:47.480Z,100750.00
2022-11-16T14:10:35.883Z,100744.84
2022-11-16T14:13:04.522Z,100737.03
2022-11-16T14:15:47.625Z,100733.53
2022-11-16T14:18:33.420Z,100746.53
2022-11-16T14:24:32.534Z,100737.88
2022-11-16T14:27:06.453Z,100745.75
2022-11-16T14:30:02.722Z,100748.38
2022-11-16T14:32:42.411Z,100754.38
2022-11-16T14:35:29.633Z,100744.78
2022-11-16T14:42:24.519Z,100745.59
2022-11-16T14:45:09.766Z,100766.50
2022-11-16T14:47:41.753Z,100750.91
2022-11-16T14:50:47.909Z,100760.41
2022-11-16T14:53:20.448Z,100749.16
2022-11-16T14:55:47.130Z,100750.00
2022-11-16T14:58:34.707Z,100752.50
2022-11-16T15:01:04.337Z,100756.75
2022-11-16T15:03:43.870Z,100748.06
2022-11-16T15:06:10.624Z,100747.97
2022-11-16T15:08:43.972Z,100743.59
2022-11-16T15:11:22.489Z,100747.06
2022-11-16T15:14:00.904Z,100745.31
2022-11-16T15:16:27.529Z,100748.81
2022-11-16T15:19:03.754Z,100749.59
2022-11-16T15:21:30.383Z,100761.75
2022-11-16T15:26:43.980Z,100752.06
2022-11-16T15:29:17.230Z,100752.00
2022-11-16T15:31:52.995Z,100743.19
2022-11-16T15:34:20.225Z,100746.59
2022-11-16T15:36:47.680Z,100745.69
2022-11-16T15:39:28.601Z,100742.09
2022-11-16T15:42:00.387Z,100743.00
2022-11-16T15:44:36.942Z,100736.00
2022-11-16T15:47:04.038Z,100747.16
2022-11-16T15:49:38.184Z,100748.88
2022-11-16T15:52:06.127Z,100741.88
2022-11-16T15:54:52.900Z,100750.53
2022-11-16T15:57:20.290Z,100751.34
2022-11-16T15:59:55.544Z,100739.13
2022-11-16T16:02:25.010Z,100751.34
2022-11-16T16:04:51.869Z,100751.38
2022-11-16T16:07:44.365Z,100754.91
2022-11-16T16:10:32.608Z,100755.78
2022-11-16T16:13:01.730Z,100741.06
2022-11-16T16:15:31.270Z,100736.81
2022-11-16T16:17:59.031Z,100744.66
2022-11-16T16:20:29.700Z,100750.75
2022-11-16T16:23:12.985Z,100742.88
2022-11-16T16:25:44.750Z,100757.66
2022-11-16T16:28:14.441Z,100753.41
2022-11-16T16:30:41.155Z,100741.94
2022-11-16T16:33:21.078Z,100742.78
2022-11-16T16:35:49.896Z,100763.56
2022-11-16T16:38:16.624Z,100740.09
2022-11-16T16:40:43.280Z,100761.03
2022-11-16T16:43:11.232Z,100754.16
2022-11-16T16:45:43.599Z,100753.28
2022-11-16T16:48:12.750Z,100746.34
2022-11-16T16:50:44.951Z,100697.34
2022-11-16T16:53:13.348Z,100758.34
2022-11-16T16:55:51.786Z,100744.47
2022-11-16T16:58:20.644Z,100755.66
2022-11-16T17:00:56.923Z,100755.72
2022-11-16T17:03:42.307Z,100756.53
2022-11-16T17:06:08.931Z,100753.84
2022-11-16T17:08:37.012Z,100756.41
2022-11-16T17:11:07.158Z,100756.22
2022-11-16T17:13:34.095Z,100746.69
2022-11-16T17:16:07.158Z,100756.19
2022-11-16T17:18:36.326Z,100751.75
2022-11-16T17:21:07.744Z,100747.38
2022-11-16T17:23:35.365Z,100735.16
2022-11-16T17:26:09.797Z,100740.31
2022-11-16T17:28:40.407Z,100740.34
2022-11-16T17:31:09.211Z,100743.78
2022-11-16T17:33:38.182Z,100739.44
2022-11-16T17:36:06.054Z,100736.75
2022-11-16T17:38:43.541Z,100745.31
2022-11-16T17:41:15.891Z,100699.09
2022-11-16T17:43:46.423Z,100673.69
2022-11-16T17:46:18.090Z,100729.41
2022-11-16T17:48:47.323Z,100727.56
2022-11-16T17:51:16.699Z,100731.88
2022-11-16T17:53:46.457Z,100720.53
2022-11-16T17:56:14.942Z,100734.44
2022-11-16T17:58:41.971Z,100698.66
2022-11-16T18:01:22.608Z,100716.00
2022-11-16T18:04:09.456Z,100736.97
2022-11-16T18:06:36.258Z,100735.25
2022-11-16T18:09:04.831Z,100732.47
2022-11-16T18:11:31.465Z,100743.75
2022-11-16T18:14:06.397Z,100727.09
2022-11-16T18:16:33.872Z,100728.84
2022-11-16T18:19:04.942Z,100744.34
2022-11-16T18:22:08.732Z,100729.41
2022-11-16T18:24:33.631Z,100737.94
2022-11-16T18:27:00.293Z,100739.66
2022-11-16T18:29:32.248Z,100727.38
2022-11-16T18:32:00.107Z,100727.53
2022-11-16T18:34:26.799Z,100716.31
2022-11-16T18:36:53.563Z,100730.47
2022-11-16T18:39:20.143Z,100735.75
2022-11-16T18:41:51.801Z,100728.13
2022-11-16T18:44:21.352Z,100725.66
2022-11-16T18:46:47.932Z,100732.78
2022-11-16T18:49:17.067Z,100735.50
2022-11-16T18:51:43.715Z,100732.09
2022-11-16T18:54:13.582Z,100731.28
2022-11-16T18:59:35.647Z,100732.25
2022-11-16T19:02:10.646Z,100721.00
2022-11-16T19:04:40.304Z,100735.75
2022-11-16T19:07:07.838Z,100740.88
2022-11-16T19:09:35.350Z,100733.09
2022-11-16T19:12:04.775Z,100689.34
2022-11-16T19:14:34.316Z,100726.94
2022-11-16T19:17:01.838Z,100700.72
2022-11-16T19:19:29.868Z,100679.78
2022-11-16T19:21:57.089Z,100727.59
2022-11-16T19:24:25.355Z,100723.13
2022-11-16T19:26:51.990Z,100697.84
2022-11-16T19:29:19.430Z,100715.25
2022-11-16T19:32:10.405Z,100723.81
2022-11-16T19:34:37.062Z,100717.50
2022-11-16T19:43:59.902Z,100710.66
2022-11-16T19:46:28.726Z,100733.88
2022-11-16T19:48:56.421Z,100734.44
2022-11-16T19:51:25.484Z,100738.56
2022-11-16T19:53:52.461Z,100728.09
2022-11-16T19:56:20.481Z,100717.63
2022-11-16T19:58:48.066Z,100724.63
2022-11-16T20:01:18.966Z,100730.81
2022-11-16T20:03:47.463Z,100724.78
2022-11-16T20:06:20.854Z,100722.34
2022-11-16T20:08:56.277Z,100729.38
2022-11-16T20:11:26.475Z,100712.88
2022-11-16T20:13:55.110Z,100697.22
2022-11-16T20:16:26.083Z,100723.63
2022-11-16T20:18:53.439Z,100728.94
2022-11-16T20:21:33.148Z,100717.00
2022-11-16T20:24:06.332Z,100717.13
2022-11-16T20:26:34.778Z,100721.59
2022-11-16T20:29:02.511Z,100719.03
2022-11-16T20:31:31.099Z,100722.44
2022-11-16T20:34:01.918Z,100720.00
2022-11-16T20:36:30.689Z,100703.50
2022-11-16T20:38:59.228Z,100727.84
2022-11-16T20:41:28.376Z,100715.72
2022-11-16T20:43:56.827Z,100714.06
2022-11-16T20:46:26.749Z,100710.50
2022-11-16T20:48:54.608Z,100672.94
2022-11-16T20:51:21.304Z,100719.94
2022-11-16T20:53:50.094Z,100702.38
2022-11-16T20:56:19.223Z,100705.03
2022-11-16T20:58:46.749Z,100715.31
2022-11-16T21:01:19.520Z,100701.31
2022-11-16T21:03:48.990Z,100714.25
2022-11-16T21:06:15.890Z,100696.84
2022-11-16T21:08:42.562Z,100714.94
2022-11-16T21:11:14.539Z,100710.53
2022-11-16T21:13:59.824Z,100708.84
2022-11-16T21:16:26.744Z,100700.25
2022-11-16T21:18:54.652Z,100708.88
2022-11-16T21:21:21.683Z,100705.31
2022-11-16T21:23:55.114Z,100673.84
2022-11-16T21:26:29.745Z,100699.97
2022-11-16T21:28:58.567Z,100699.91
2022-11-16T21:31:33.712Z,100701.50
2022-11-16T21:34:01.172Z,100703.22
2022-11-16T21:36:30.498Z,100709.97
2022-11-16T21:38:58.225Z,100709.13
2022-11-16T21:41:25.799Z,100716.88
2022-11-16T21:43:52.473Z,100724.75
2022-11-16T21:46:26.927Z,100725.75
2022-11-16T21:48:55.472Z,100716.22
2022-11-16T21:51:26.926Z,100733.63
2022-11-16T21:53:54.391Z,100710.31
2022-11-16T21:56:25.918Z,100701.72
2022-11-16T21:58:53.436Z,100716.56
2022-11-16T22:01:22.671Z,100725.34
2022-11-16T22:04:09.638Z,100694.81
2022-11-16T22:06:55.079Z,100724.50
2022-11-16T22:09:21.888Z,100731.50
2022-11-16T22:11:48.513Z,100728.03
2022-11-16T22:14:15.668Z,100713.44
2022-11-16T22:16:42.337Z,100716.13
2022-11-16T22:19:08.986Z,100706.50
2022-11-16T22:21:36.667Z,100713.50
2022-11-16T22:24:03.370Z,100709.19
2022-11-16T22:26:30.015Z,100710.13
2022-11-16T22:28:58.144Z,100722.28
2022-11-16T22:31:25.162Z,100702.19
2022-11-16T22:33:53.644Z,100712.63
2022-11-16T22:36:23.563Z,100676.00
2022-11-16T22:38:50.269Z,100716.03
2022-11-16T22:41:16.881Z,100722.91
2022-11-16T22:43:43.469Z,100707.28
2022-11-16T22:46:10.983Z,100692.41
2022-11-16T22:48:42.586Z,100712.31
2022-11-16T22:51:18.483Z,100720.06
2022-11-16T22:53:45.240Z,100714.00
2022-11-16T22:56:12.544Z,100706.94
2022-11-16T22:58:40.668Z,100703.25
2022-11-16T23:01:08.618Z,100712.09
2022-11-16T23:03:38.082Z,100707.66
2022-11-16T23:06:07.721Z,100700.72
2022-11-16T23:08:35.252Z,100715.38
2022-11-16T23:11:23.454Z,100713.06
2022-11-16T23:14:10.430Z,100704.41
2022-11-16T23:16:38.356Z,100717.28
2022-11-16T23:19:26.371Z,100718.94
2022-11-16T23:22:11.736Z,100711.31
2022-11-16T23:24:57.311Z,100729.50
2022-11-16T23:27:32.767Z,100693.00
2022-11-16T23:30:10.755Z,100697.03
2022-11-16T23:32:38.997Z,100719.44
2022-11-16T23:35:06.082Z,100700.28
2022-11-16T23:37:32.672Z,100720.44
2022-11-16T23:40:00.530Z,100731.66
2022-11-16T23:42:45.498Z,100722.09
2022-11-16T23:45:12.125Z,100731.47
2022-11-16T23:47:38.679Z,100732.31
2022-11-16T23:50:05.685Z,100728.03
2022-11-16T23:52:32.837Z,100730.72
2022-11-16T23:55:01.601Z,100713.28
2022-11-16T23:57:30.492Z,100730.78
2022-11-16T23:59:57.807Z,100739.59
